createdAt,value
2019-01-17T00:00:49.196Z,215
2019-01-17T00:01:50.637Z,215.7
2019-01-17T00:02:49.193Z,215.3
2019-01-17T00:03:49.220Z,215.2
2019-01-17T00:04:49.118Z,215.1
2019-01-17T00:05:49.180Z,218.6
2019-01-17T00:06:49.227Z,228.5
2019-01-17T00:07:49.180Z,248.2
2019-01-17T00:08:49.187Z,251.4
2019-01-17T00:09:49.177Z,255.8
2019-01-17T00:10:49.121Z,256.5
2019-01-17T00:11:49.203Z,258.3
2019-01-17T00:13:49.222Z,261.9
2019-01-17T00:14:49.299Z,260.9
2019-01-17T00:15:49.164Z,238.7
2019-01-17T00:16:49.197Z,225.3
2019-01-17T00:17:49.204Z,219.7
2019-01-17T00:18:49.207Z,236.6
2019-01-17T00:19:49.295Z,253.2
2019-01-17T00:20:49.166Z,284.1
2019-01-17T00:21:49.141Z,296.2
2019-01-17T00:22:49.241Z,301.1
2019-01-17T00:23:49.209Z,303.2
2019-01-17T00:24:49.349Z,304.2
2019-01-17T00:25:49.234Z,304.6
2019-01-17T00:26:49.157Z,304.8
2019-01-17T00:27:49.204Z,304.9
2019-01-17T00:28:49.186Z,305
2019-01-17T00:29:49.301Z,305
2019-01-17T00:30:49.206Z,285.7
2019-01-17T00:31:49.188Z,249.1
2019-01-17T00:32:49.326Z,242
2019-01-17T00:33:49.267Z,239.5
2019-01-17T00:34:49.211Z,238.4
2019-01-17T00:35:49.274Z,237.9
2019-01-17T00:36:49.174Z,241.8
2019-01-17T00:37:49.216Z,251.3
2019-01-17T00:38:49.171Z,270.8
2019-01-17T00:39:49.230Z,274.6
2019-01-17T00:40:49.289Z,232.9
2019-01-17T00:41:49.225Z,221.6
2019-01-17T00:42:49.152Z,217.8
2019-01-17T00:43:49.195Z,216.3
2019-01-17T00:44:49.232Z,215.6
2019-01-17T00:45:49.240Z,215.3
2019-01-17T00:46:49.174Z,215.1
2019-01-17T00:47:49.286Z,215.1
2019-01-17T00:48:49.149Z,215
2019-01-17T00:49:49.258Z,215
2019-01-17T00:50:49.170Z,215
2019-01-17T00:51:49.237Z,215
2019-01-17T00:52:49.199Z,215
2019-01-17T00:53:49.118Z,215
2019-01-17T00:54:49.211Z,215
2019-01-17T00:55:49.242Z,215
2019-01-17T00:56:49.229Z,215
2019-01-17T00:57:49.206Z,215
2019-01-17T00:58:49.199Z,215
2019-01-17T00:59:49.174Z,215
2019-01-17T01:00:49.176Z,215
2019-01-17T01:01:49.171Z,224.6
2019-01-17T01:02:49.268Z,258.7
2019-01-17T01:03:49.210Z,286.4
2019-01-17T01:04:49.165Z,256.3
2019-01-17T01:05:49.270Z,243.3
2019-01-17T01:06:49.192Z,251.3
2019-01-17T01:07:49.222Z,252.5
2019-01-17T01:08:49.272Z,248.7
2019-01-17T01:09:49.118Z,247.6
2019-01-17T01:10:49.178Z,238.6
2019-01-17T01:11:49.163Z,231.9
2019-01-17T01:12:49.185Z,222.6
2019-01-17T01:13:49.296Z,218.5
2019-01-17T01:14:49.301Z,218.8
2019-01-17T01:15:49.159Z,217.8
2019-01-17T01:16:49.176Z,216.3
2019-01-17T01:17:49.175Z,215.6
2019-01-17T01:18:49.240Z,215.3
2019-01-17T01:19:49.183Z,218.1
2019-01-17T01:20:49.182Z,230.5
2019-01-17T01:21:49.224Z,245.6
2019-01-17T01:22:49.187Z,251.8
2019-01-17T01:23:49.223Z,255.9
2019-01-17T01:24:49.175Z,254.2
2019-01-17T01:25:49.244Z,240.8
2019-01-17T01:26:49.157Z,226.4
2019-01-17T01:27:49.383Z,220.3
2019-01-17T01:28:49.205Z,219
2019-01-17T01:29:49.146Z,204.7
2019-01-17T01:30:49.209Z,154
2019-01-17T01:31:49.119Z,135.7
2019-01-17T01:32:49.156Z,129.4
2019-01-17T01:33:49.191Z,127
2019-01-17T01:34:49.173Z,125.9
2019-01-17T01:35:49.264Z,125.4
2019-01-17T01:36:49.183Z,125.2
2019-01-17T01:37:49.137Z,125.1
2019-01-17T01:38:49.164Z,125
2019-01-17T01:39:49.157Z,125
2019-01-17T01:40:49.272Z,125
2019-01-17T01:41:49.171Z,125
2019-01-17T01:42:49.101Z,125
2019-01-17T01:43:49.272Z,125
2019-01-17T01:44:49.225Z,125
2019-01-17T01:45:49.243Z,125
2019-01-17T01:46:49.260Z,125
2019-01-17T01:47:49.200Z,125
2019-01-17T01:48:49.100Z,125
2019-01-17T01:49:49.176Z,125
2019-01-17T01:50:49.177Z,125
2019-01-17T01:51:49.163Z,125
2019-01-17T01:52:49.217Z,125
2019-01-17T01:53:49.130Z,125
2019-01-17T01:54:49.144Z,125
2019-01-17T01:55:49.196Z,125
2019-01-17T01:56:49.235Z,125
2019-01-17T01:57:49.163Z,125
2019-01-17T01:58:49.205Z,125
2019-01-17T01:59:49.168Z,125
2019-01-17T02:00:49.178Z,125
2019-01-17T02:01:49.135Z,125
2019-01-17T02:02:49.186Z,125
2019-01-17T02:03:49.274Z,125
2019-01-17T02:04:49.122Z,125
2019-01-17T02:05:49.196Z,125
2019-01-17T02:06:49.150Z,125
2019-01-17T02:07:49.176Z,125
2019-01-17T02:08:49.250Z,128.6
2019-01-17T02:09:49.145Z,138.9
2019-01-17T02:10:49.185Z,143.4
2019-01-17T02:11:49.185Z,145.6
2019-01-17T02:12:49.142Z,146.6
2019-01-17T02:13:49.176Z,147.1
2019-01-17T02:14:49.168Z,147.3
2019-01-17T02:15:49.233Z,147.4
2019-01-17T02:16:49.165Z,147.5
2019-01-17T02:17:49.161Z,147.5
2019-01-17T02:18:49.156Z,147.5
2019-01-17T02:19:49.180Z,147.5
2019-01-17T02:20:49.172Z,147.5
2019-01-17T02:21:49.162Z,147.5
2019-01-17T02:22:49.127Z,158
2019-01-17T02:23:49.173Z,164.5
2019-01-17T02:24:49.186Z,167.4
2019-01-17T02:25:49.179Z,168.8
2019-01-17T02:26:49.143Z,169.4
2019-01-17T02:27:49.148Z,169.7
2019-01-17T02:28:49.151Z,169.9
2019-01-17T02:29:49.149Z,169.9
2019-01-17T02:30:49.263Z,170
2019-01-17T02:31:49.120Z,170
2019-01-17T02:32:49.103Z,170
2019-01-17T02:33:49.269Z,170
2019-01-17T02:34:49.166Z,170
2019-01-17T02:35:49.159Z,170
2019-01-17T02:36:49.152Z,170
2019-01-17T02:37:49.098Z,170
2019-01-17T02:38:49.147Z,170
2019-01-17T02:39:49.192Z,170
2019-01-17T02:40:49.131Z,170
2019-01-17T02:41:49.180Z,170
2019-01-17T02:42:49.141Z,170
2019-01-17T02:43:49.212Z,170
2019-01-17T02:44:49.193Z,170
2019-01-17T02:45:49.183Z,170
2019-01-17T02:46:49.208Z,170
2019-01-17T02:47:49.108Z,170
2019-01-17T02:48:49.125Z,170
2019-01-17T02:49:49.150Z,170
2019-01-17T02:50:49.190Z,170
2019-01-17T02:51:49.163Z,170
2019-01-17T02:52:49.195Z,170
2019-01-17T02:53:49.155Z,170
2019-01-17T02:54:49.134Z,170
2019-01-17T02:55:49.171Z,170
2019-01-17T02:56:49.130Z,170
2019-01-17T02:57:49.112Z,170
2019-01-17T02:58:49.148Z,170
2019-01-17T02:59:49.114Z,170
2019-01-17T03:00:49.232Z,170
2019-01-17T03:01:49.158Z,170
2019-01-17T03:02:49.117Z,170
2019-01-17T03:03:49.201Z,170
2019-01-17T03:04:49.062Z,170
2019-01-17T03:05:49.205Z,170
2019-01-17T03:06:49.105Z,170
2019-01-17T03:07:49.152Z,170
2019-01-17T03:08:49.231Z,170
2019-01-17T03:09:49.049Z,170
2019-01-17T03:10:49.102Z,170
2019-01-17T03:11:49.115Z,170
2019-01-17T03:12:49.118Z,170
2019-01-17T03:13:50.952Z,170
2019-01-17T03:14:49.163Z,170
2019-01-17T03:15:49.061Z,170
2019-01-17T03:16:49.098Z,170
2019-01-17T03:17:49.142Z,170
2019-01-17T03:18:49.212Z,170
2019-01-17T03:19:49.116Z,170
2019-01-17T03:20:49.146Z,170
2019-01-17T03:21:49.290Z,170
2019-01-17T03:22:49.166Z,170
2019-01-17T03:23:49.123Z,170
2019-01-17T03:24:49.118Z,170
2019-01-17T03:25:49.159Z,170
2019-01-17T03:26:49.093Z,170
2019-01-17T03:27:49.130Z,170
2019-01-17T03:28:49.173Z,170
2019-01-17T03:29:49.210Z,170
2019-01-17T03:30:49.130Z,170
2019-01-17T03:31:49.113Z,170
2019-01-17T03:32:49.142Z,170
2019-01-17T03:33:49.179Z,170
2019-01-17T03:34:49.124Z,170
2019-01-17T03:35:49.122Z,170
2019-01-17T03:36:49.080Z,170
2019-01-17T03:37:49.127Z,170
2019-01-17T03:38:49.221Z,170
2019-01-17T03:39:49.098Z,170
2019-01-17T03:40:49.101Z,170
2019-01-17T03:41:49.203Z,170
2019-01-17T03:42:49.062Z,170
2019-01-17T03:43:49.095Z,170
2019-01-17T03:44:49.161Z,170
2019-01-17T03:45:49.155Z,170
2019-01-17T03:46:49.143Z,170
2019-01-17T03:47:49.166Z,170
2019-01-17T03:48:49.152Z,170
2019-01-17T03:49:49.099Z,170
2019-01-17T03:50:49.139Z,170
2019-01-17T03:51:49.092Z,170
2019-01-17T03:52:49.116Z,170
2019-01-17T03:53:49.052Z,170
2019-01-17T03:54:56.441Z,170
2019-01-17T03:55:49.099Z,170
2019-01-17T03:56:49.209Z,170
2019-01-17T03:57:49.213Z,170
2019-01-17T03:58:49.092Z,170
2019-01-17T03:59:49.058Z,170
2019-01-17T04:00:49.079Z,170
2019-01-17T04:01:49.151Z,170
2019-01-17T04:02:49.180Z,170
2019-01-17T04:03:49.141Z,170
2019-01-17T04:04:49.040Z,170
2019-01-17T04:05:49.054Z,170
2019-01-17T04:06:49.163Z,170
2019-01-17T04:07:49.220Z,170
2019-01-17T04:08:49.073Z,170
2019-01-17T04:09:49.040Z,170
2019-01-17T04:10:49.074Z,170
2019-01-17T04:11:49.070Z,170
2019-01-17T04:12:49.173Z,170
2019-01-17T04:13:49.091Z,170
2019-01-17T04:14:49.078Z,170
2019-01-17T04:15:49.074Z,170
2019-01-17T04:16:49.126Z,170
2019-01-17T04:17:49.088Z,170
2019-01-17T04:18:49.075Z,170
2019-01-17T04:19:49.079Z,170
2019-01-17T04:20:49.119Z,170
2019-01-17T04:21:49.097Z,170
2019-01-17T04:22:49.102Z,170
2019-01-17T04:23:49.081Z,170
2019-01-17T04:24:49.142Z,170
2019-01-17T04:25:50.258Z,170
2019-01-17T04:26:49.043Z,170
2019-01-17T04:27:49.101Z,177.1
2019-01-17T04:28:49.105Z,185.2
2019-01-17T04:29:49.115Z,189.1
2019-01-17T04:30:49.167Z,190.9
2019-01-17T04:31:49.008Z,191.8
2019-01-17T04:32:49.121Z,192.2
2019-01-17T04:33:49.122Z,192.3
2019-01-17T04:34:49.106Z,192.4
2019-01-17T04:35:49.209Z,192.5
2019-01-17T04:36:49.035Z,192.5
2019-01-17T04:37:49.024Z,192.5
2019-01-17T04:38:49.127Z,192.5
2019-01-17T04:39:49.069Z,192.5
2019-01-17T04:40:49.068Z,192.5
2019-01-17T04:41:49.063Z,192.5
2019-01-17T04:42:49.128Z,192.5
2019-01-17T04:43:49.162Z,192.5
2019-01-17T04:44:49.114Z,192.5
2019-01-17T04:45:49.079Z,192.5
2019-01-17T04:46:49.088Z,192.5
2019-01-17T04:47:49.097Z,192.5
2019-01-17T04:48:49.043Z,192.5
2019-01-17T04:49:49.132Z,192.5
2019-01-17T04:50:49.084Z,192.5
2019-01-17T04:51:49.115Z,192.5
2019-01-17T04:52:49.116Z,192.5
2019-01-17T04:53:49.111Z,192.5
2019-01-17T04:54:49.085Z,192.5
2019-01-17T04:55:49.106Z,192.5
2019-01-17T04:56:49.116Z,192.5
2019-01-17T04:57:49.159Z,192.5
2019-01-17T04:58:49.034Z,192.5
2019-01-17T04:59:49.078Z,192.5
2019-01-17T05:00:49.097Z,192.5
2019-01-17T05:01:49.074Z,192.5
2019-01-17T05:02:49.172Z,192.5
2019-01-17T05:03:49.113Z,192.5
2019-01-17T05:04:49.047Z,194.1
2019-01-17T05:05:49.086Z,205.3
2019-01-17T05:06:49.114Z,210.6
2019-01-17T05:07:49.163Z,212.9
2019-01-17T05:08:49.069Z,214
2019-01-17T05:09:49.047Z,214.6
2019-01-17T05:10:49.149Z,214.8
2019-01-17T05:11:49.064Z,214.9
2019-01-17T05:12:49.041Z,215
2019-01-17T05:13:49.086Z,215
2019-01-17T05:14:49.493Z,215
2019-01-17T05:15:49.041Z,209.7
2019-01-17T05:16:49.081Z,211.3
2019-01-17T05:17:49.058Z,213.3
2019-01-17T05:18:49.061Z,214.2
2019-01-17T05:19:49.176Z,214.6
2019-01-17T05:20:49.022Z,214.8
2019-01-17T05:21:49.082Z,214.9
2019-01-17T05:22:49.118Z,215
2019-01-17T05:23:49.045Z,214
2019-01-17T05:24:49.061Z,214.5
2019-01-17T05:25:49.111Z,214.8
2019-01-17T05:26:49.017Z,214.9
2019-01-17T05:27:49.190Z,215
2019-01-17T05:28:49.077Z,215
2019-01-17T05:29:49.050Z,215
2019-01-17T05:30:49.798Z,215
2019-01-17T05:32:53.034Z,215
2019-01-17T05:33:53.270Z,215
2019-01-17T05:34:53.095Z,215
2019-01-17T05:35:53.097Z,215
2019-01-17T05:36:54.209Z,215
2019-01-17T05:37:53.009Z,215.3
2019-01-17T05:38:53.054Z,215.1
2019-01-17T05:39:53.111Z,215.1
2019-01-17T05:40:53.029Z,215
2019-01-17T05:41:53.055Z,215
2019-01-17T05:42:52.970Z,215
2019-01-17T05:43:53.158Z,215
2019-01-17T05:44:53.134Z,215
2019-01-17T05:45:53.042Z,215
2019-01-17T05:46:53.105Z,215
2019-01-17T05:47:52.977Z,215
2019-01-17T05:48:53.019Z,215
2019-01-17T05:49:53.115Z,215
2019-01-17T05:50:53.050Z,220.3
2019-01-17T05:51:53.024Z,231.6
2019-01-17T05:52:53.056Z,222.6
2019-01-17T05:53:52.972Z,218.5
2019-01-17T05:54:53.122Z,216.6
2019-01-17T05:55:53.120Z,215.8
2019-01-17T05:56:53.045Z,215.4
2019-01-17T05:57:53.056Z,215.2
2019-01-17T05:58:52.994Z,215.1
2019-01-17T05:59:53.232Z,215
2019-01-17T06:00:53.077Z,215
2019-01-17T06:01:53.098Z,215
2019-01-17T06:02:53.081Z,215
2019-01-17T06:03:53.618Z,215
2019-01-17T06:04:54.407Z,218.2
2019-01-17T06:05:53.002Z,225.3
2019-01-17T06:06:53.213Z,220.7
2019-01-17T06:07:53.040Z,217.7
2019-01-17T06:08:53.055Z,216.3
2019-01-17T06:09:52.970Z,219
2019-01-17T06:10:53.025Z,222.4
2019-01-17T06:11:53.118Z,221
2019-01-17T06:12:53.110Z,230.4
2019-01-17T06:13:53.012Z,228.6
2019-01-17T06:14:53.052Z,223.2
2019-01-17T06:15:53.005Z,223.8
2019-01-17T06:16:53.085Z,227.6
2019-01-17T06:17:53.044Z,220.8
2019-01-17T06:18:53.028Z,224.4
2019-01-17T06:20:02.896Z,235.8
2019-01-17T06:20:52.986Z,234.1
2019-01-17T06:21:53.066Z,227.3
2019-01-17T06:22:52.992Z,220.6
2019-01-17T06:23:53.013Z,217.6
2019-01-17T06:24:53.063Z,216.2
2019-01-17T06:25:52.995Z,219.7
2019-01-17T06:26:52.935Z,218.8
2019-01-17T06:27:53.048Z,216.8
2019-01-17T06:28:53.035Z,215.8
2019-01-17T06:29:53.097Z,221.1
2019-01-17T06:30:53.045Z,218.3
2019-01-17T06:31:52.984Z,233.6
2019-01-17T06:32:53.051Z,235
2019-01-17T06:33:53.060Z,224.1
2019-01-17T06:34:53.040Z,220.9
2019-01-17T06:35:53.090Z,219.5
2019-01-17T06:36:53.004Z,211.6
2019-01-17T06:37:53.012Z,188.8
2019-01-17T06:38:53.131Z,178.4
2019-01-17T06:39:52.996Z,173.8
2019-01-17T06:40:53.101Z,171.8
2019-01-17T06:41:53.045Z,170.8
2019-01-17T06:42:53.067Z,170.4
2019-01-17T06:43:53.520Z,170.2
2019-01-17T06:44:53.028Z,170.1
2019-01-17T06:45:53.108Z,170
2019-01-17T06:46:52.972Z,170
2019-01-17T06:47:53.111Z,170
2019-01-17T06:48:52.966Z,170
2019-01-17T06:49:53.058Z,170
2019-01-17T06:50:52.993Z,170
2019-01-17T06:51:53.029Z,170
2019-01-17T06:52:52.965Z,170
2019-01-17T06:53:52.951Z,170
2019-01-17T06:54:53.047Z,170
2019-01-17T06:55:53.085Z,170
2019-01-17T06:56:53.038Z,170
2019-01-17T06:57:53.030Z,170
2019-01-17T06:58:52.945Z,170
2019-01-17T06:59:52.995Z,170
2019-01-17T07:00:53.073Z,170
2019-01-17T07:01:53.002Z,170
2019-01-17T07:02:52.995Z,170
2019-01-17T07:03:52.982Z,170
2019-01-17T07:04:53.058Z,170
2019-01-17T07:05:53.009Z,170
2019-01-17T07:06:53.151Z,170
2019-01-17T07:07:52.940Z,170
2019-01-17T07:08:53.032Z,170
2019-01-17T07:09:53.124Z,170
2019-01-17T07:10:53.014Z,170
2019-01-17T07:11:53.023Z,170
2019-01-17T07:12:53.016Z,170
2019-01-17T07:13:52.996Z,170
2019-01-17T07:14:53.053Z,170
2019-01-17T07:15:52.979Z,170
2019-01-17T07:16:53.037Z,170
2019-01-17T07:17:52.992Z,170
2019-01-17T07:18:52.958Z,170
2019-01-17T07:19:53.012Z,170
2019-01-17T07:20:52.960Z,170
2019-01-17T07:21:53.066Z,170
2019-01-17T07:22:52.994Z,170
2019-01-17T07:23:52.926Z,170
2019-01-17T07:24:52.996Z,170
2019-01-17T07:25:52.942Z,170
2019-01-17T07:26:53.047Z,170
2019-01-17T07:27:52.980Z,170
2019-01-17T07:28:53.004Z,170
2019-01-17T07:29:52.985Z,170
2019-01-17T07:30:53.073Z,170
2019-01-17T07:31:52.912Z,170
2019-01-17T07:32:53.015Z,170
2019-01-17T07:33:53.742Z,170
2019-01-17T07:34:53.008Z,170
2019-01-17T07:35:53.043Z,170
2019-01-17T07:36:52.912Z,170
2019-01-17T07:37:52.978Z,170
2019-01-17T07:38:54.051Z,170
2019-01-17T07:39:53.685Z,170
2019-01-17T07:40:52.993Z,170
2019-01-17T07:41:52.963Z,170
2019-01-17T07:42:52.916Z,170
2019-01-17T07:43:53.065Z,170
2019-01-17T07:44:53.231Z,170
2019-01-17T07:45:53.008Z,170
2019-01-17T07:46:53.019Z,170
2019-01-17T07:47:55.295Z,170
2019-01-17T07:48:53.000Z,170
2019-01-17T07:49:52.885Z,170
2019-01-17T07:50:52.876Z,170
2019-01-17T07:51:53.033Z,170
2019-01-17T07:52:55.111Z,170
2019-01-17T07:53:56.131Z,170
2019-01-17T07:54:57.891Z,170
2019-01-17T07:55:58.256Z,170
2019-01-17T07:56:57.455Z,170
2019-01-17T07:57:54.609Z,170
2019-01-17T07:58:53.023Z,170
2019-01-17T07:59:53.560Z,170
2019-01-17T08:00:52.997Z,170
2019-01-17T08:01:57.279Z,170
2019-01-17T08:02:53.016Z,170
2019-01-17T08:03:53.020Z,170
2019-01-17T08:04:53.339Z,170
2019-01-17T08:05:53.009Z,170
2019-01-17T08:06:59.088Z,171.1
2019-01-17T08:07:52.930Z,182.5
2019-01-17T08:08:53.125Z,187.9
2019-01-17T08:09:53.207Z,190.4
2019-01-17T08:10:59.156Z,191.5
2019-01-17T08:11:56.338Z,192
2019-01-17T08:12:52.945Z,192.3
2019-01-17T08:13:53.018Z,192.4
2019-01-17T08:14:52.931Z,192.5
2019-01-17T08:15:52.900Z,192.5
2019-01-17T08:16:52.986Z,192.5
2019-01-17T08:17:52.940Z,192.5
2019-01-17T08:18:53.016Z,192.5
2019-01-17T08:19:52.980Z,192.5
2019-01-17T08:20:53.005Z,192.5
2019-01-17T08:21:52.986Z,192.5
2019-01-17T08:22:52.995Z,192.5
2019-01-17T08:23:53.047Z,192.5
2019-01-17T08:24:53.009Z,192.5
2019-01-17T08:25:57.752Z,192.5
2019-01-17T08:26:52.921Z,192.5
2019-01-17T08:27:52.957Z,192.5
2019-01-17T08:28:52.998Z,192.5
2019-01-17T08:29:52.989Z,192.5
2019-01-17T08:30:53.024Z,192.5
2019-01-17T08:31:52.912Z,192.5
2019-01-17T08:32:53.045Z,192.5
2019-01-17T08:33:53.021Z,192.5
2019-01-17T08:34:52.929Z,192.5
2019-01-17T08:35:53.027Z,192.5
2019-01-17T08:36:53.039Z,198.3
2019-01-17T08:37:52.864Z,207.3
2019-01-17T08:38:52.976Z,211.4
2019-01-17T08:39:52.906Z,213.3
2019-01-17T08:40:53.015Z,214.2
2019-01-17T08:41:52.963Z,214.6
2019-01-17T08:42:52.885Z,214.8
2019-01-17T08:43:52.897Z,214.9
2019-01-17T08:44:52.950Z,215
2019-01-17T08:45:52.980Z,215
2019-01-17T08:46:53.014Z,215
2019-01-17T08:47:52.915Z,215
2019-01-17T08:48:52.888Z,215
2019-01-17T08:49:52.949Z,215
2019-01-17T08:50:52.903Z,215
2019-01-17T08:51:52.941Z,215
2019-01-17T08:52:52.908Z,215
2019-01-17T08:53:52.857Z,204.5
2019-01-17T08:54:52.906Z,198
2019-01-17T08:55:52.980Z,195.1
2019-01-17T08:56:52.901Z,193.7
2019-01-17T08:57:52.941Z,193.1
2019-01-17T08:58:52.917Z,192.8
2019-01-17T08:59:52.983Z,192.6
2019-01-17T09:00:52.968Z,192.6
2019-01-17T09:01:52.926Z,192.5
2019-01-17T09:02:53.033Z,192.5
2019-01-17T09:03:52.844Z,192.5
2019-01-17T09:04:52.944Z,192.5
2019-01-17T09:05:52.917Z,192.5
2019-01-17T09:06:52.957Z,192.5
2019-01-17T09:07:52.943Z,192.5
2019-01-17T09:08:52.988Z,192.5
2019-01-17T09:09:52.865Z,192.5
2019-01-17T09:10:52.973Z,192.5
2019-01-17T09:11:52.971Z,192.5
2019-01-17T09:12:52.932Z,192.5
2019-01-17T09:13:53.025Z,192.5
2019-01-17T09:14:52.958Z,192.5
2019-01-17T09:15:52.875Z,192.5
2019-01-17T09:16:52.914Z,192.5
2019-01-17T09:17:52.927Z,192.5
2019-01-17T09:18:52.913Z,196.6
2019-01-17T09:19:52.971Z,206.7
2019-01-17T09:20:52.954Z,211
2019-01-17T09:21:52.892Z,213.2
2019-01-17T09:22:52.879Z,214.1
2019-01-17T09:23:52.912Z,214.6
2019-01-17T09:24:52.922Z,214.8
2019-01-17T09:25:52.944Z,214.9
2019-01-17T09:26:52.935Z,215
2019-01-17T09:27:52.943Z,215
2019-01-17T09:28:52.909Z,215
2019-01-17T09:29:53.020Z,215
2019-01-17T09:30:52.968Z,215
2019-01-17T09:31:52.899Z,215
2019-01-17T09:32:52.946Z,215
2019-01-17T09:33:52.965Z,215
2019-01-17T09:34:52.981Z,215
2019-01-17T09:35:52.930Z,215
2019-01-17T09:36:52.942Z,215
2019-01-17T09:37:52.899Z,224.6
2019-01-17T09:38:52.940Z,226.5
2019-01-17T09:39:52.948Z,220.3
2019-01-17T09:40:52.968Z,223.7
2019-01-17T09:41:52.956Z,219
2019-01-17T09:42:52.861Z,216.8
2019-01-17T09:43:52.915Z,215.9
2019-01-17T09:44:52.976Z,220.7
2019-01-17T09:45:52.969Z,217.7
2019-01-17T09:46:52.895Z,216.2
2019-01-17T09:47:52.873Z,215.6
2019-01-17T09:48:52.947Z,215.3
2019-01-17T09:49:52.866Z,215.1
2019-01-17T09:50:52.973Z,215.1
2019-01-17T09:51:52.865Z,215
2019-01-17T09:52:52.886Z,215
2019-01-17T09:53:52.873Z,215
2019-01-17T09:54:52.987Z,215
2019-01-17T09:55:52.999Z,219.8
2019-01-17T09:56:52.928Z,217.2
2019-01-17T09:57:52.913Z,216
2019-01-17T09:58:52.834Z,215.5
2019-01-17T09:59:52.933Z,215.2
2019-01-17T10:00:53.269Z,215.1
2019-01-17T10:01:52.931Z,215
2019-01-17T10:02:53.004Z,215
2019-01-17T10:03:52.848Z,215
2019-01-17T10:04:52.931Z,215
2019-01-17T10:05:52.873Z,215
2019-01-17T10:06:52.890Z,215
2019-01-17T10:07:52.930Z,215
2019-01-17T10:08:54.292Z,205.7
2019-01-17T10:09:52.835Z,209.9
2019-01-17T10:10:53.007Z,211.8
2019-01-17T10:11:52.891Z,213.2
2019-01-17T10:12:53.045Z,214.2
2019-01-17T10:13:52.920Z,214.2
2019-01-17T10:14:52.839Z,214.6
2019-01-17T10:15:52.916Z,214.8
2019-01-17T10:16:52.942Z,214.9
2019-01-17T10:17:52.976Z,219.7
2019-01-17T10:18:52.893Z,218.1
2019-01-17T10:19:52.966Z,216.4
2019-01-17T10:20:52.837Z,215.7
2019-01-17T10:21:52.887Z,215.3
2019-01-17T10:22:52.984Z,215.1
2019-01-17T10:23:53.004Z,214.4
2019-01-17T10:24:52.928Z,214.7
2019-01-17T10:25:52.845Z,214.9
2019-01-17T10:26:52.906Z,214.9
2019-01-17T10:27:52.930Z,202.8
2019-01-17T10:28:52.913Z,184.8
2019-01-17T10:29:52.920Z,176.7
2019-01-17T10:30:52.989Z,173
2019-01-17T10:31:52.851Z,171.4
2019-01-17T10:32:52.955Z,170.7
2019-01-17T10:33:52.926Z,175.3
2019-01-17T10:34:52.903Z,174.6
2019-01-17T10:35:52.904Z,184.2
2019-01-17T10:36:52.842Z,188.7
2019-01-17T10:37:52.979Z,190.7
2019-01-17T10:38:52.939Z,191.7
2019-01-17T10:39:52.980Z,192.7
2019-01-17T10:40:52.889Z,204.6
2019-01-17T10:41:52.940Z,210.2
2019-01-17T10:42:52.871Z,212.8
2019-01-17T10:43:52.885Z,214
2019-01-17T10:44:52.954Z,214.5
2019-01-17T10:45:52.888Z,214.8
2019-01-17T10:46:52.989Z,214.9
2019-01-17T10:48:00.067Z,215
2019-01-17T10:48:52.951Z,215.3
2019-01-17T10:49:52.900Z,215.1
2019-01-17T10:50:52.975Z,215.1
2019-01-17T10:51:52.975Z,211.4
2019-01-17T10:52:52.809Z,201.3
2019-01-17T10:53:53.019Z,196.6
2019-01-17T10:54:53.054Z,200.3
2019-01-17T10:55:52.889Z,208.2
2019-01-17T10:56:52.909Z,211.8
2019-01-17T10:57:52.859Z,213.5
2019-01-17T10:58:52.858Z,214.3
2019-01-17T10:59:52.976Z,214.7
2019-01-17T11:00:52.931Z,214.9
2019-01-17T11:01:52.903Z,214.9
2019-01-17T11:02:52.914Z,215
2019-01-17T11:03:52.911Z,215
2019-01-17T11:04:52.853Z,215
2019-01-17T11:05:52.841Z,215
2019-01-17T11:06:52.950Z,215
2019-01-17T11:07:52.885Z,215
2019-01-17T11:08:52.931Z,209.6
2019-01-17T11:09:52.896Z,200.4
2019-01-17T11:10:52.908Z,196.2
2019-01-17T11:11:52.894Z,194.2
2019-01-17T11:12:52.886Z,193.3
2019-01-17T11:13:52.923Z,192.9
2019-01-17T11:14:52.807Z,192.7
2019-01-17T11:15:52.939Z,192.6
2019-01-17T11:16:52.875Z,192.5
2019-01-17T11:17:52.860Z,192.5
2019-01-17T11:18:52.891Z,192.5
2019-01-17T11:19:53.077Z,192.5
2019-01-17T11:20:52.870Z,192.5
2019-01-17T11:21:52.909Z,192.5
2019-01-17T11:22:52.892Z,182.9
2019-01-17T11:23:52.847Z,176
2019-01-17T11:24:52.963Z,172.8
2019-01-17T11:25:52.868Z,171.3
2019-01-17T11:26:52.876Z,170.6
2019-01-17T11:27:52.966Z,170.3
2019-01-17T11:28:52.880Z,170.1
2019-01-17T11:29:52.944Z,170.1
2019-01-17T11:30:52.961Z,170
2019-01-17T11:31:52.818Z,170
2019-01-17T11:32:52.894Z,170
2019-01-17T11:33:52.877Z,170
2019-01-17T11:34:52.912Z,170
2019-01-17T11:35:52.960Z,170
2019-01-17T11:36:52.848Z,175.4
2019-01-17T11:37:52.888Z,184.6
2019-01-17T11:38:52.887Z,188.8
2019-01-17T11:39:52.920Z,190.8
2019-01-17T11:40:52.865Z,191.7
2019-01-17T11:41:52.911Z,192.1
2019-01-17T11:42:52.798Z,192.3
2019-01-17T11:43:52.873Z,192.4
2019-01-17T11:44:52.924Z,192.5
2019-01-17T11:45:52.873Z,192.5
2019-01-17T11:46:52.967Z,196.1
2019-01-17T11:47:52.839Z,206.2
2019-01-17T11:48:54.083Z,210.9
2019-01-17T11:49:52.997Z,213.1
2019-01-17T11:50:52.959Z,214.1
2019-01-17T11:51:52.864Z,214.6
2019-01-17T11:52:52.824Z,214.8
2019-01-17T11:53:52.822Z,214.9
2019-01-17T11:54:52.880Z,215
2019-01-17T11:55:52.960Z,215
2019-01-17T11:56:52.916Z,215
2019-01-17T11:57:52.877Z,205.1
2019-01-17T11:58:52.920Z,198.3
2019-01-17T11:59:52.877Z,195.2
2019-01-17T12:00:52.923Z,193.8
2019-01-17T12:01:52.879Z,193.1
2019-01-17T12:02:52.936Z,192.8
2019-01-17T12:03:52.859Z,192.6
2019-01-17T12:04:52.824Z,192.6
2019-01-17T12:05:52.995Z,204.2
2019-01-17T12:06:52.899Z,210
2019-01-17T12:07:52.911Z,212.7
2019-01-17T12:08:52.908Z,213.9
2019-01-17T12:09:52.901Z,214.5
2019-01-17T12:10:52.871Z,214.8
2019-01-17T12:11:52.870Z,214.9
2019-01-17T12:12:52.964Z,214.9
2019-01-17T12:13:53.003Z,215
2019-01-17T12:14:52.818Z,215
2019-01-17T12:15:52.910Z,208.8
2019-01-17T12:16:52.877Z,200
2019-01-17T12:17:52.877Z,196
2019-01-17T12:18:52.932Z,194.1
2019-01-17T12:19:52.980Z,193.3
2019-01-17T12:20:52.785Z,192.9
2019-01-17T12:21:52.881Z,194.3
2019-01-17T12:22:52.872Z,205.3
2019-01-17T12:23:52.887Z,210.5
2019-01-17T12:24:52.981Z,212.9
2019-01-17T12:25:52.820Z,214
2019-01-17T12:26:52.903Z,214.5
2019-01-17T12:27:52.884Z,214.8
2019-01-17T12:28:52.866Z,214.9
2019-01-17T12:29:52.923Z,215
2019-01-17T12:30:52.863Z,215
2019-01-17T12:31:52.800Z,215
2019-01-17T12:32:52.890Z,215
2019-01-17T12:33:52.988Z,219.8
2019-01-17T12:34:52.959Z,222.2
2019-01-17T12:35:52.867Z,220.1
2019-01-17T12:36:52.826Z,217.4
2019-01-17T12:37:52.936Z,216.1
2019-01-17T12:38:52.952Z,215.5
2019-01-17T12:39:52.987Z,215.2
2019-01-17T12:40:52.920Z,206.4
2019-01-17T12:41:52.846Z,186.5
2019-01-17T12:42:52.966Z,177.4
2019-01-17T12:43:52.959Z,173.4
2019-01-17T12:44:52.938Z,171.6
2019-01-17T12:45:52.923Z,170.7
2019-01-17T12:46:52.906Z,170.3
2019-01-17T12:47:52.928Z,179.8
2019-01-17T12:48:52.816Z,186.6
2019-01-17T12:49:52.893Z,189.8
2019-01-17T12:50:52.864Z,191.2
2019-01-17T12:51:52.885Z,191.9
2019-01-17T12:52:52.918Z,192.2
2019-01-17T12:53:52.922Z,192.4
2019-01-17T12:54:52.879Z,192.4
2019-01-17T12:55:52.896Z,192.5
2019-01-17T12:56:57.607Z,192.5
2019-01-17T12:57:52.933Z,192.5
2019-01-17T12:58:52.823Z,192.5
2019-01-17T12:59:53.059Z,192.5
2019-01-17T13:00:52.878Z,192.5
2019-01-17T13:01:52.863Z,192.5
2019-01-17T13:02:52.936Z,192.5
2019-01-17T13:03:52.822Z,192.5
2019-01-17T13:04:52.835Z,188.4
2019-01-17T13:05:52.925Z,178.3
2019-01-17T13:06:52.944Z,174
2019-01-17T13:07:52.889Z,171.8
2019-01-17T13:08:52.972Z,170.9
2019-01-17T13:09:52.835Z,170.4
2019-01-17T13:10:52.927Z,170.2
2019-01-17T13:11:52.874Z,170.1
2019-01-17T13:12:52.884Z,177.5
2019-01-17T13:13:52.846Z,185.5
2019-01-17T13:14:52.854Z,189.3
2019-01-17T13:15:52.924Z,191
2019-01-17T13:16:52.985Z,191.8
2019-01-17T13:17:52.874Z,192.2